sensor_id;sensor_type;location;lat;lon;timestamp;pressure;altitude;pressure_sealevel;temperature;humidity
38716;BME280;24833;49.324;8.694;2023-04-27T00:02:01;99918.25;;;8.90;50.53
38716;BME280;24833;49.324;8.694;2023-04-27T00:04:28;99923.72;;;8.88;50.44
38716;BME280;24833;49.324;8.694;2023-04-27T00:06:56;99921.44;;;8.85;50.70
38716;BME280;24833;49.324;8.694;2023-04-27T00:09:23;99913.66;;;8.84;50.74
38716;BME280;24833;49.324;8.694;2023-04-27T00:11:50;99912.16;;;8.81;50.64
38716;BME280;24833;49.324;8.694;2023-04-27T00:14:17;99913.16;;;8.80;50.36
38716;BME280;24833;49.324;8.694;2023-04-27T00:16:43;99901.25;;;8.76;50.28
38716;BME280;24833;49.324;8.694;2023-04-27T00:19:11;99909.56;;;8.73;50.57
38716;BME280;24833;49.324;8.694;2023-04-27T00:21:40;99903.59;;;8.71;50.58
38716;BME280;24833;49.324;8.694;2023-04-27T00:24:07;99904.63;;;8.70;50.47
38716;BME280;24833;49.324;8.694;2023-04-27T00:26:34;99901.28;;;8.68;50.92
38716;BME280;24833;49.324;8.694;2023-04-27T00:29:01;99893.69;;;8.65;50.82
38716;BME280;24833;49.324;8.694;2023-04-27T00:31:29;99893.03;;;8.63;50.48
38716;BME280;24833;49.324;8.694;2023-04-27T00:33:56;99900.34;;;8.61;50.00
38716;BME280;24833;49.324;8.694;2023-04-27T00:36:23;99898.88;;;8.58;50.47
38716;BME280;24833;49.324;8.694;2023-04-27T00:38:50;99891.25;;;8.55;50.60
38716;BME280;24833;49.324;8.694;2023-04-27T00:41:17;99895.09;;;8.53;50.45
38716;BME280;24833;49.324;8.694;2023-04-27T00:43:44;99894.47;;;8.51;50.55
38716;BME280;24833;49.324;8.694;2023-04-27T00:46:16;99890.31;;;8.48;50.40
38716;BME280;24833;49.324;8.694;2023-04-27T00:48:43;99893.16;;;8.46;50.47
38716;BME280;24833;49.324;8.694;2023-04-27T00:51:10;99890.69;;;8.45;50.42
38716;BME280;24833;49.324;8.694;2023-04-27T00:53:37;99886.53;;;8.42;50.42
38716;BME280;24833;49.324;8.694;2023-04-27T00:56:06;99888.56;;;8.40;50.34
38716;BME280;24833;49.324;8.694;2023-04-27T00:58:33;99890.56;;;8.38;50.69
38716;BME280;24833;49.324;8.694;2023-04-27T01:01:00;99886.25;;;8.37;50.38
38716;BME280;24833;49.324;8.694;2023-04-27T01:03:27;99891.88;;;8.34;50.77
38716;BME280;24833;49.324;8.694;2023-04-27T01:05:54;99903.53;;;8.33;50.39
38716;BME280;24833;49.324;8.694;2023-04-27T01:08:22;99900.25;;;8.31;50.74
38716;BME280;24833;49.324;8.694;2023-04-27T01:10:50;99905.75;;;8.30;50.67
38716;BME280;24833;49.324;8.694;2023-04-27T01:13:17;99904.91;;;8.29;50.52
38716;BME280;24833;49.324;8.694;2023-04-27T01:15:44;99901.59;;;8.27;50.21
38716;BME280;24833;49.324;8.694;2023-04-27T01:18:11;99911.22;;;8.28;50.81
38716;BME280;24833;49.324;8.694;2023-04-27T01:20:38;99905.44;;;8.25;50.70
38716;BME280;24833;49.324;8.694;2023-04-27T01:23:14;99895.97;;;8.22;50.58
38716;BME280;24833;49.324;8.694;2023-04-27T01:25:43;99903.31;;;8.20;50.13
38716;BME280;24833;49.324;8.694;2023-04-27T01:28:10;99908.63;;;8.20;50.24
38716;BME280;24833;49.324;8.694;2023-04-27T01:30:37;99896.34;;;8.19;50.28
38716;BME280;24833;49.324;8.694;2023-04-27T01:33:04;99895.50;;;8.18;50.05
38716;BME280;24833;49.324;8.694;2023-04-27T01:35:31;99893.84;;;8.17;50.43
38716;BME280;24833;49.324;8.694;2023-04-27T01:37:59;99893.84;;;8.17;50.29
38716;BME280;24833;49.324;8.694;2023-04-27T01:40:26;99888.72;;;8.16;49.74
38716;BME280;24833;49.324;8.694;2023-04-27T01:42:53;99893.38;;;8.14;50.32
38716;BME280;24833;49.324;8.694;2023-04-27T01:45:21;99896.22;;;8.12;49.99
38716;BME280;24833;49.324;8.694;2023-04-27T01:47:50;99897.03;;;8.13;49.83
38716;BME280;24833;49.324;8.694;2023-04-27T01:50:19;99892.72;;;8.12;50.03
38716;BME280;24833;49.324;8.694;2023-04-27T01:52:46;99898.22;;;8.10;50.29
38716;BME280;24833;49.324;8.694;2023-04-27T01:55:13;99892.91;;;8.10;50.02
38716;BME280;24833;49.324;8.694;2023-04-27T01:57:41;99894.75;;;8.10;49.79
38716;BME280;24833;49.324;8.694;2023-04-27T02:00:09;99903.53;;;8.10;50.34
38716;BME280;24833;49.324;8.694;2023-04-27T02:02:48;99894.56;;;8.11;50.21
38716;BME280;24833;49.324;8.694;2023-04-27T02:05:19;99898.03;;;8.12;50.03
38716;BME280;24833;49.324;8.694;2023-04-27T02:07:47;99899.69;;;8.13;50.16
38716;BME280;24833;49.324;8.694;2023-04-27T02:10:14;99898.69;;;8.14;49.58
38716;BME280;24833;49.324;8.694;2023-04-27T02:12:41;99897.69;;;8.15;50.27
38716;BME280;24833;49.324;8.694;2023-04-27T02:15:09;99901.00;;;8.17;49.86
38716;BME280;24833;49.324;8.694;2023-04-27T02:17:37;99901.66;;;8.19;49.58
38716;BME280;24833;49.324;8.694;2023-04-27T02:20:06;99897.97;;;8.20;49.73
38716;BME280;24833;49.324;8.694;2023-04-27T02:22:33;99899.47;;;8.23;50.04
38716;BME280;24833;49.324;8.694;2023-04-27T02:25:00;99902.97;;;8.23;50.10
38716;BME280;24833;49.324;8.694;2023-04-27T02:27:27;99903.59;;;8.25;49.65
38716;BME280;24833;49.324;8.694;2023-04-27T02:29:54;99904.25;;;8.27;50.03
38716;BME280;24833;49.324;8.694;2023-04-27T02:32:22;99905.06;;;8.28;49.98
38716;BME280;24833;49.324;8.694;2023-04-27T02:34:49;99907.59;;;8.29;50.17
38716;BME280;24833;49.324;8.694;2023-04-27T02:37:16;99917.84;;;8.32;49.84
38716;BME280;24833;49.324;8.694;2023-04-27T02:39:43;99913.34;;;8.33;49.43
38716;BME280;24833;49.324;8.694;2023-04-27T02:42:10;99910.50;;;8.34;49.86
38716;BME280;24833;49.324;8.694;2023-04-27T02:44:37;99919.19;;;8.36;49.63
38716;BME280;24833;49.324;8.694;2023-04-27T02:47:04;99916.34;;;8.38;49.64
38716;BME280;24833;49.324;8.694;2023-04-27T02:49:31;99919.66;;;8.40;49.46
38716;BME280;24833;49.324;8.694;2023-04-27T02:51:59;99917.81;;;8.40;49.60
38716;BME280;24833;49.324;8.694;2023-04-27T02:54:26;99922.97;;;8.42;50.25
38716;BME280;24833;49.324;8.694;2023-04-27T02:56:53;99922.81;;;8.43;49.97
38716;BME280;24833;49.324;8.694;2023-04-27T02:59:20;99927.13;;;8.44;50.05
38716;BME280;24833;49.324;8.694;2023-04-27T03:01:47;99919.13;;;8.44;50.21
38716;BME280;24833;49.324;8.694;2023-04-27T03:04:15;99921.59;;;8.46;50.61
38716;BME280;24833;49.324;8.694;2023-04-27T03:06:44;99919.78;;;8.46;50.48
38716;BME280;24833;49.324;8.694;2023-04-27T03:09:11;99922.25;;;8.48;50.24
38716;BME280;24833;49.324;8.694;2023-04-27T03:11:39;99923.06;;;8.49;50.51
38716;BME280;24833;49.324;8.694;2023-04-27T03:14:06;99917.75;;;8.49;50.27
38716;BME280;24833;49.324;8.694;2023-04-27T03:16:37;99914.09;;;8.50;50.17
38716;BME280;24833;49.324;8.694;2023-04-27T03:19:04;99905.13;;;8.51;50.58
38716;BME280;24833;49.324;8.694;2023-04-27T03:21:31;99918.41;;;8.51;50.32
38716;BME280;24833;49.324;8.694;2023-04-27T03:23:58;99907.59;;;8.52;50.25
38716;BME280;24833;49.324;8.694;2023-04-27T03:26:25;99917.41;;;8.52;50.21
38716;BME280;24833;49.324;8.694;2023-04-27T03:28:52;99920.91;;;8.52;50.66
38716;BME280;24833;49.324;8.694;2023-04-27T03:31:19;99925.22;;;8.53;50.71
38716;BME280;24833;49.324;8.694;2023-04-27T03:33:46;99927.03;;;8.53;50.53
38716;BME280;24833;49.324;8.694;2023-04-27T03:36:14;99924.38;;;8.53;50.42
38716;BME280;24833;49.324;8.694;2023-04-27T03:38:41;99921.72;;;8.53;50.63
38716;BME280;24833;49.324;8.694;2023-04-27T03:41:08;99927.03;;;8.53;50.73
38716;BME280;24833;49.324;8.694;2023-04-27T03:43:35;99933.00;;;8.55;50.80
38716;BME280;24833;49.324;8.694;2023-04-27T03:46:02;99932.19;;;8.54;50.59
38716;BME280;24833;49.324;8.694;2023-04-27T03:48:29;99926.84;;;8.54;50.71
38716;BME280;24833;49.324;8.694;2023-04-27T03:50:56;99925.03;;;8.55;50.82
38716;BME280;24833;49.324;8.694;2023-04-27T03:53:23;99921.53;;;8.54;51.12
38716;BME280;24833;49.324;8.694;2023-04-27T03:55:51;99925.84;;;8.55;50.89
38716;BME280;24833;49.324;8.694;2023-04-27T03:58:18;99917.88;;;8.55;51.27
38716;BME280;24833;49.324;8.694;2023-04-27T04:01:05;99928.50;;;8.55;51.19
38716;BME280;24833;49.324;8.694;2023-04-27T04:03:32;99924.00;;;8.56;51.33
38716;BME280;24833;49.324;8.694;2023-04-27T04:06:00;99919.69;;;8.55;51.29
38716;BME280;24833;49.324;8.694;2023-04-27T04:08:29;99919.06;;;8.53;51.37
38716;BME280;24833;49.324;8.694;2023-04-27T04:10:59;99924.56;;;8.51;51.51
38716;BME280;24833;49.324;8.694;2023-04-27T04:13:27;99930.06;;;8.50;51.82
38716;BME280;24833;49.324;8.694;2023-04-27T04:16:03;99934.72;;;8.48;51.38
38716;BME280;24833;49.324;8.694;2023-04-27T04:18:32;99930.59;;;8.45;51.84
38716;BME280;24833;49.324;8.694;2023-04-27T04:20:59;99934.41;;;8.42;51.92
38716;BME280;24833;49.324;8.694;2023-04-27T04:23:26;99923.31;;;8.39;51.73
38716;BME280;24833;49.324;8.694;2023-04-27T04:25:54;99927.19;;;8.36;51.88
38716;BME280;24833;49.324;8.694;2023-04-27T04:28:28;99933.63;;;8.34;52.14
38716;BME280;24833;49.324;8.694;2023-04-27T04:30:55;99939.97;;;8.33;52.00
38716;BME280;24833;49.324;8.694;2023-04-27T04:33:22;99936.84;;;8.29;52.04
38716;BME280;24833;49.324;8.694;2023-04-27T04:35:50;99940.66;;;8.27;52.45
38716;BME280;24833;49.324;8.694;2023-04-27T04:38:17;99933.88;;;8.24;52.04
38716;BME280;24833;49.324;8.694;2023-04-27T04:40:46;99934.22;;;8.21;52.15
38716;BME280;24833;49.324;8.694;2023-04-27T04:43:13;99936.41;;;8.17;52.57
38716;BME280;24833;49.324;8.694;2023-04-27T04:45:40;99946.56;;;8.14;52.70
38716;BME280;24833;49.324;8.694;2023-04-27T04:48:08;99946.94;;;8.11;52.44
38716;BME280;24833;49.324;8.694;2023-04-27T04:50:36;99948.91;;;8.09;52.47
38716;BME280;24833;49.324;8.694;2023-04-27T04:53:04;99949.09;;;8.07;52.57
38716;BME280;24833;49.324;8.694;2023-04-27T04:55:32;99955.41;;;8.06;52.56
38716;BME280;24833;49.324;8.694;2023-04-27T04:58:00;99948.44;;;8.05;52.76
38716;BME280;24833;49.324;8.694;2023-04-27T05:00:28;99952.13;;;8.04;52.68
38716;BME280;24833;49.324;8.694;2023-04-27T05:02:55;99952.28;;;8.03;52.74
38716;BME280;24833;49.324;8.694;2023-04-27T05:05:22;99954.97;;;8.03;52.74
38716;BME280;24833;49.324;8.694;2023-04-27T05:07:49;99953.28;;;8.02;52.89
38716;BME280;24833;49.324;8.694;2023-04-27T05:10:16;99959.41;;;8.02;52.91
38716;BME280;24833;49.324;8.694;2023-04-27T05:12:43;99960.28;;;8.03;52.66
38716;BME280;24833;49.324;8.694;2023-04-27T05:15:10;99967.25;;;8.04;52.89
38716;BME280;24833;49.324;8.694;2023-04-27T05:17:37;99956.44;;;8.05;53.06
38716;BME280;24833;49.324;8.694;2023-04-27T05:20:05;99957.25;;;8.06;52.96
38716;BME280;24833;49.324;8.694;2023-04-27T05:22:33;99961.56;;;8.07;53.09
38716;BME280;24833;49.324;8.694;2023-04-27T05:25:00;99964.22;;;8.07;52.93
38716;BME280;24833;49.324;8.694;2023-04-27T05:27:27;99972.19;;;8.07;53.05
38716;BME280;24833;49.324;8.694;2023-04-27T05:29:54;99970.19;;;8.09;53.38
38716;BME280;24833;49.324;8.694;2023-04-27T05:32:21;99968.38;;;8.09;53.40
38716;BME280;24833;49.324;8.694;2023-04-27T05:34:48;99971.69;;;8.11;53.45
38716;BME280;24833;49.324;8.694;2023-04-27T05:37:15;99982.16;;;8.13;53.39
38716;BME280;24833;49.324;8.694;2023-04-27T05:39:42;99979.47;;;8.13;53.62
38716;BME280;24833;49.324;8.694;2023-04-27T05:42:09;99984.63;;;8.14;53.40
38716;BME280;24833;49.324;8.694;2023-04-27T05:44:36;99984.47;;;8.16;53.42
38716;BME280;24833;49.324;8.694;2023-04-27T05:47:03;99978.78;;;8.19;53.35
38716;BME280;24833;49.324;8.694;2023-04-27T05:49:30;99976.78;;;8.21;53.88
38716;BME280;24833;49.324;8.694;2023-04-27T05:51:57;99979.09;;;8.24;53.48
38716;BME280;24833;49.324;8.694;2023-04-27T05:54:24;99989.38;;;8.27;53.69
38716;BME280;24833;49.324;8.694;2023-04-27T05:56:53;99984.53;;;8.31;54.05
38716;BME280;24833;49.324;8.694;2023-04-27T05:59:20;99985.19;;;8.33;54.04
38716;BME280;24833;49.324;8.694;2023-04-27T06:01:47;99988.38;;;8.36;54.20
38716;BME280;24833;49.324;8.694;2023-04-27T06:04:14;99991.69;;;8.38;54.17
38716;BME280;24833;49.324;8.694;2023-04-27T06:06:42;99986.00;;;8.41;54.67
38716;BME280;24833;49.324;8.694;2023-04-27T06:09:10;99993.63;;;8.44;54.29
38716;BME280;24833;49.324;8.694;2023-04-27T06:11:37;99995.28;;;8.45;54.43
38716;BME280;24833;49.324;8.694;2023-04-27T06:14:04;99993.94;;;8.50;54.23
38716;BME280;24833;49.324;8.694;2023-04-27T06:16:31;99987.25;;;8.54;54.83
38716;BME280;24833;49.324;8.694;2023-04-27T06:18:59;99996.88;;;8.55;54.45
38716;BME280;24833;49.324;8.694;2023-04-27T06:21:26;99988.56;;;8.58;54.60
38716;BME280;24833;49.324;8.694;2023-04-27T06:23:53;99984.69;;;8.60;54.64
38716;BME280;24833;49.324;8.694;2023-04-27T06:26:21;99994.19;;;8.63;54.98
38716;BME280;24833;49.324;8.694;2023-04-27T06:28:48;99992.16;;;8.65;55.26
38716;BME280;24833;49.324;8.694;2023-04-27T06:31:15;100007.78;;;8.68;54.96
38716;BME280;24833;49.324;8.694;2023-04-27T06:33:43;100005.59;;;8.71;55.20
38716;BME280;24833;49.324;8.694;2023-04-27T06:36:09;100013.06;;;8.76;55.00
38716;BME280;24833;49.324;8.694;2023-04-27T06:38:37;100014.97;;;8.82;55.03
38716;BME280;24833;49.324;8.694;2023-04-27T06:41:04;100021.25;;;8.89;55.04
38716;BME280;24833;49.324;8.694;2023-04-27T06:43:32;100023.19;;;8.95;54.97
38716;BME280;24833;49.324;8.694;2023-04-27T06:45:59;100022.50;;;9.01;54.99
38716;BME280;24833;49.324;8.694;2023-04-27T06:48:26;100020.75;;;9.09;55.07
38716;BME280;24833;49.324;8.694;2023-04-27T06:50:53;100027.03;;;9.16;55.40
38716;BME280;24833;49.324;8.694;2023-04-27T06:53:20;100026.31;;;9.22;55.14
38716;BME280;24833;49.324;8.694;2023-04-27T06:55:47;100034.25;;;9.30;55.02
38716;BME280;24833;49.324;8.694;2023-04-27T06:58:14;100031.69;;;9.37;55.28
38716;BME280;24833;49.324;8.694;2023-04-27T07:00:41;100029.13;;;9.43;55.62
38716;BME280;24833;49.324;8.694;2023-04-27T07:03:08;100027.19;;;9.52;55.58
38716;BME280;24833;49.324;8.694;2023-04-27T07:05:35;100026.91;;;9.62;55.54
38716;BME280;24833;49.324;8.694;2023-04-27T07:08:02;100023.34;;;9.69;55.49
38716;BME280;24833;49.324;8.694;2023-04-27T07:10:34;100020.59;;;9.77;55.85
38716;BME280;24833;49.324;8.694;2023-04-27T07:13:01;100027.66;;;9.85;55.58
38716;BME280;24833;49.324;8.694;2023-04-27T07:15:30;100025.72;;;9.94;55.76
38716;BME280;24833;49.324;8.694;2023-04-27T07:17:57;100026.44;;;10.02;55.92
38716;BME280;24833;49.324;8.694;2023-04-27T07:20:24;100029.88;;;10.11;55.92
38716;BME280;24833;49.324;8.694;2023-04-27T07:22:52;100030.56;;;10.20;55.79
38716;BME280;24833;49.324;8.694;2023-04-27T07:25:19;100034.00;;;10.28;55.98
38716;BME280;24833;49.324;8.694;2023-04-27T07:27:46;100040.69;;;10.39;56.17
38716;BME280;24833;49.324;8.694;2023-04-27T07:30:13;100035.88;;;10.49;56.29
38716;BME280;24833;49.324;8.694;2023-04-27T07:32:41;100031.91;;;10.60;56.51
38716;BME280;24833;49.324;8.694;2023-04-27T07:35:08;100030.56;;;10.71;56.16
38716;BME280;24833;49.324;8.694;2023-04-27T07:37:36;100032.09;;;10.80;56.49
38716;BME280;24833;49.324;8.694;2023-04-27T07:40:05;100028.94;;;10.91;56.36
38716;BME280;24833;49.324;8.694;2023-04-27T07:42:43;100026.13;;;10.99;56.56
38716;BME280;24833;49.324;8.694;2023-04-27T07:45:12;100031.94;;;11.09;56.55
38716;BME280;24833;49.324;8.694;2023-04-27T07:47:39;100025.47;;;11.18;56.84
38716;BME280;24833;49.324;8.694;2023-04-27T07:50:07;100030.66;;;11.27;56.98
38716;BME280;24833;49.324;8.694;2023-04-27T07:52:34;100030.53;;;11.35;56.74
38716;BME280;24833;49.324;8.694;2023-04-27T07:55:03;100030.38;;;11.43;56.43
38716;BME280;24833;49.324;8.694;2023-04-27T07:57:30;100026.75;;;11.51;56.59
38716;BME280;24833;49.324;8.694;2023-04-27T07:59:57;100024.75;;;11.59;57.04
38716;BME280;24833;49.324;8.694;2023-04-27T08:02:26;100029.94;;;11.67;57.00
38716;BME280;24833;49.324;8.694;2023-04-27T08:04:57;100027.09;;;11.76;57.00
38716;BME280;24833;49.324;8.694;2023-04-27T08:07:25;100029.66;;;11.84;56.65
38716;BME280;24833;49.324;8.694;2023-04-27T08:09:53;100021.47;;;11.92;56.88
38716;BME280;24833;49.324;8.694;2023-04-27T08:12:19;100019.66;;;11.99;57.11
38716;BME280;24833;49.324;8.694;2023-04-27T08:14:47;100020.28;;;12.08;56.63
38716;BME280;24833;49.324;8.694;2023-04-27T08:17:14;100025.69;;;12.14;56.82
38716;BME280;24833;49.324;8.694;2023-04-27T08:19:41;100024.88;;;12.20;57.04
38716;BME280;24833;49.324;8.694;2023-04-27T08:22:08;100024.09;;;12.26;56.54
38716;BME280;24833;49.324;8.694;2023-04-27T08:24:35;100016.69;;;12.35;56.57
38716;BME280;24833;49.324;8.694;2023-04-27T08:27:04;100022.06;;;12.42;56.59
38716;BME280;24833;49.324;8.694;2023-04-27T08:29:32;100019.63;;;12.47;57.03
38716;BME280;24833;49.324;8.694;2023-04-27T08:32:02;100012.44;;;12.54;56.65
38716;BME280;24833;49.324;8.694;2023-04-27T08:34:30;100013.69;;;12.58;56.74
38716;BME280;24833;49.324;8.694;2023-04-27T08:36:58;100009.16;;;12.65;56.93
38716;BME280;24833;49.324;8.694;2023-04-27T08:39:26;100014.31;;;12.73;56.97
38716;BME280;24833;49.324;8.694;2023-04-27T08:41:53;100011.44;;;12.81;56.57
38716;BME280;24833;49.324;8.694;2023-04-27T08:44:21;100008.38;;;12.91;56.73
38716;BME280;24833;49.324;8.694;2023-04-27T08:46:48;100014.16;;;13.01;57.03
38716;BME280;24833;49.324;8.694;2023-04-27T08:49:16;100007.34;;;13.12;56.49
38716;BME280;24833;49.324;8.694;2023-04-27T08:51:44;100005.31;;;13.21;56.51
38716;BME280;24833;49.324;8.694;2023-04-27T08:54:11;100001.19;;;13.25;56.61
38716;BME280;24833;49.324;8.694;2023-04-27T08:56:38;99998.50;;;13.31;56.55
38716;BME280;24833;49.324;8.694;2023-04-27T08:59:13;100003.66;;;13.40;56.96
38716;BME280;24833;49.324;8.694;2023-04-27T09:01:46;100009.41;;;13.50;57.18
38716;BME280;24833;49.324;8.694;2023-04-27T09:04:15;99995.38;;;13.61;57.31
38716;BME280;24833;49.324;8.694;2023-04-27T09:06:44;100010.63;;;13.74;56.90
38716;BME280;24833;49.324;8.694;2023-04-27T09:09:22;100000.22;;;13.90;57.81
38716;BME280;24833;49.324;8.694;2023-04-27T09:11:49;100005.56;;;14.04;57.25
38716;BME280;24833;49.324;8.694;2023-04-27T09:14:22;100010.28;;;14.15;57.09
38716;BME280;24833;49.324;8.694;2023-04-27T09:16:57;100005.88;;;14.27;57.26
38716;BME280;24833;49.324;8.694;2023-04-27T09:19:27;100001.50;;;14.39;57.22
38716;BME280;24833;49.324;8.694;2023-04-27T09:22:09;100011.97;;;14.54;57.33
38716;BME280;24833;49.324;8.694;2023-04-27T09:24:37;100016.28;;;14.62;56.80
38716;BME280;24833;49.324;8.694;2023-04-27T09:27:06;100014.38;;;14.69;56.99
38716;BME280;24833;49.324;8.694;2023-04-27T09:29:38;100001.28;;;14.79;56.93
38716;BME280;24833;49.324;8.694;2023-04-27T09:32:15;100007.00;;;14.89;57.38
38716;BME280;24833;49.324;8.694;2023-04-27T09:34:43;99998.09;;;14.89;56.22
38716;BME280;24833;49.324;8.694;2023-04-27T09:37:11;100007.00;;;14.89;56.10
38716;BME280;24833;49.324;8.694;2023-04-27T09:39:39;99992.50;;;14.90;56.08
38716;BME280;24833;49.324;8.694;2023-04-27T09:42:07;99981.69;;;14.97;56.61
38716;BME280;24833;49.324;8.694;2023-04-27T09:44:35;99986.59;;;15.07;56.30
38716;BME280;24833;49.324;8.694;2023-04-27T09:47:02;99982.16;;;15.19;57.39
38716;BME280;24833;49.324;8.694;2023-04-27T09:49:33;99986.38;;;15.33;56.94
38716;BME280;24833;49.324;8.694;2023-04-27T09:52:00;99979.41;;;15.44;56.92
38716;BME280;24833;49.324;8.694;2023-04-27T09:54:30;99981.63;;;15.53;56.83
38716;BME280;24833;49.324;8.694;2023-04-27T09:57:25;99996.66;;;15.61;57.43
38716;BME280;24833;49.324;8.694;2023-04-27T10:03:30;99982.09;;;15.69;57.27
38716;BME280;24833;49.324;8.694;2023-04-27T10:09:02;99986.19;;;15.71;55.41
38716;BME280;24833;49.324;8.694;2023-04-27T10:11:41;99985.19;;;15.72;55.95
38716;BME280;24833;49.324;8.694;2023-04-27T10:14:16;99982.41;;;15.79;56.46
38716;BME280;24833;49.324;8.694;2023-04-27T10:16:46;99980.22;;;15.88;56.38
38716;BME280;24833;49.324;8.694;2023-04-27T10:19:14;99980.75;;;15.96;55.18
38716;BME280;24833;49.324;8.694;2023-04-27T10:21:59;99991.97;;;16.12;56.34
38716;BME280;24833;49.324;8.694;2023-04-27T10:24:37;99983.56;;;16.20;55.60
38716;BME280;24833;49.324;8.694;2023-04-27T10:27:10;99979.66;;;16.34;56.75
38716;BME280;24833;49.324;8.694;2023-04-27T10:29:44;99980.38;;;16.41;53.92
38716;BME280;24833;49.324;8.694;2023-04-27T10:32:21;99978.78;;;16.52;56.27
38716;BME280;24833;49.324;8.694;2023-04-27T10:35:04;99970.72;;;16.63;57.13
38716;BME280;24833;49.324;8.694;2023-04-27T10:37:42;99976.66;;;16.72;54.40
38716;BME280;24833;49.324;8.694;2023-04-27T10:40:11;99988.75;;;16.81;55.49
38716;BME280;24833;49.324;8.694;2023-04-27T10:42:46;99979.25;;;16.91;54.63
38716;BME280;24833;49.324;8.694;2023-04-27T10:45:26;99983.63;;;17.03;56.07
38716;BME280;24833;49.324;8.694;2023-04-27T10:47:59;99990.56;;;17.11;54.37
38716;BME280;24833;49.324;8.694;2023-04-27T10:50:27;99984.47;;;17.15;54.32
38716;BME280;24833;49.324;8.694;2023-04-27T10:53:04;99981.75;;;17.15;53.46
38716;BME280;24833;49.324;8.694;2023-04-27T10:55:32;99980.84;;;17.22;54.21
38716;BME280;24833;49.324;8.694;2023-04-27T10:58:00;99974.84;;;17.31;54.86
38716;BME280;24833;49.324;8.694;2023-04-27T11:00:34;99977.53;;;17.43;55.95
38716;BME280;24833;49.324;8.694;2023-04-27T11:05:46;99970.25;;;17.79;56.37
38716;BME280;24833;49.324;8.694;2023-04-27T11:08:18;99974.34;;;17.93;56.34
38716;BME280;24833;49.324;8.694;2023-04-27T11:10:49;99968.19;;;18.09;54.65
38716;BME280;24833;49.324;8.694;2023-04-27T11:13:23;99962.25;;;18.24;53.11
38716;BME280;24833;49.324;8.694;2023-04-27T11:15:56;99964.25;;;18.29;53.19
38716;BME280;24833;49.324;8.694;2023-04-27T11:18:36;99960.84;;;18.50;52.83
38716;BME280;24833;49.324;8.694;2023-04-27T11:21:17;99960.53;;;18.75;55.52
38716;BME280;24833;49.324;8.694;2023-04-27T11:23:46;99955.41;;;18.78;47.37
38716;BME280;24833;49.324;8.694;2023-04-27T11:26:18;99959.94;;;18.90;50.13
38716;BME280;24833;49.324;8.694;2023-04-27T11:29:07;99956.28;;;19.13;54.38
38716;BME280;24833;49.324;8.694;2023-04-27T11:31:49;99950.75;;;19.24;52.73
38716;BME280;24833;49.324;8.694;2023-04-27T11:34:20;99951.28;;;19.43;53.47
38716;BME280;24833;49.324;8.694;2023-04-27T11:37:05;99954.06;;;19.65;51.24
38716;BME280;24833;49.324;8.694;2023-04-27T11:39:44;99949.97;;;19.84;52.67
38716;BME280;24833;49.324;8.694;2023-04-27T11:44:54;99943.09;;;20.21;52.63
38716;BME280;24833;49.324;8.694;2023-04-27T11:47:24;99942.38;;;20.30;51.66
38716;BME280;24833;49.324;8.694;2023-04-27T11:49:54;99933.59;;;20.45;51.73
38716;BME280;24833;49.324;8.694;2023-04-27T11:55:01;99938.97;;;20.67;50.26
38716;BME280;24833;49.324;8.694;2023-04-27T11:57:31;99940.13;;;20.76;50.54
38716;BME280;24833;49.324;8.694;2023-04-27T12:00:00;99933.69;;;20.82;50.09
38716;BME280;24833;49.324;8.694;2023-04-27T12:02:41;99927.44;;;20.82;49.47
38716;BME280;24833;49.324;8.694;2023-04-27T12:05:09;99926.88;;;20.80;49.45
38716;BME280;24833;49.324;8.694;2023-04-27T12:07:38;99921.69;;;20.78;49.09
38716;BME280;24833;49.324;8.694;2023-04-27T12:10:06;99915.00;;;20.91;51.45
38716;BME280;24833;49.324;8.694;2023-04-27T12:12:33;99912.06;;;20.98;48.76
38716;BME280;24833;49.324;8.694;2023-04-27T12:15:01;99921.63;;;21.05;49.21
38716;BME280;24833;49.324;8.694;2023-04-27T12:17:30;99916.28;;;21.15;48.86
38716;BME280;24833;49.324;8.694;2023-04-27T12:19:57;99914.97;;;21.23;48.28
38716;BME280;24833;49.324;8.694;2023-04-27T12:22:24;99909.88;;;21.32;49.24
38716;BME280;24833;49.324;8.694;2023-04-27T12:24:51;99911.25;;;21.34;47.44
38716;BME280;24833;49.324;8.694;2023-04-27T12:27:18;99905.56;;;21.36;49.21
38716;BME280;24833;49.324;8.694;2023-04-27T12:29:45;99900.41;;;21.39;49.09
38716;BME280;24833;49.324;8.694;2023-04-27T12:32:12;99897.13;;;21.37;48.52
38716;BME280;24833;49.324;8.694;2023-04-27T12:34:39;99894.97;;;21.39;50.19
38716;BME280;24833;49.324;8.694;2023-04-27T12:37:08;99891.47;;;21.44;50.79
38716;BME280;24833;49.324;8.694;2023-04-27T12:39:35;99892.84;;;21.52;49.71
38716;BME280;24833;49.324;8.694;2023-04-27T12:42:02;99893.97;;;21.56;48.88
38716;BME280;24833;49.324;8.694;2023-04-27T12:44:29;99890.72;;;21.59;50.33
38716;BME280;24833;49.324;8.694;2023-04-27T12:46:56;99889.13;;;21.63;50.85
38716;BME280;24833;49.324;8.694;2023-04-27T12:49:23;99887.00;;;21.75;51.75
38716;BME280;24833;49.324;8.694;2023-04-27T12:51:51;99887.56;;;21.82;49.43
38716;BME280;24833;49.324;8.694;2023-04-27T12:54:19;99881.81;;;21.73;48.45
38716;BME280;24833;49.324;8.694;2023-04-27T12:56:46;99885.34;;;21.79;47.80
38716;BME280;24833;49.324;8.694;2023-04-27T12:59:13;99887.84;;;21.81;48.53
38716;BME280;24833;49.324;8.694;2023-04-27T13:01:42;99883.47;;;21.74;49.08
38716;BME280;24833;49.324;8.694;2023-04-27T13:04:17;99887.50;;;21.72;49.81
38716;BME280;24833;49.324;8.694;2023-04-27T13:06:47;99889.69;;;21.70;47.43
38716;BME280;24833;49.324;8.694;2023-04-27T13:09:14;99888.06;;;21.69;48.24
38716;BME280;24833;49.324;8.694;2023-04-27T13:11:42;99882.88;;;21.67;46.57
38716;BME280;24833;49.324;8.694;2023-04-27T13:14:09;99882.06;;;21.72;49.14
38716;BME280;24833;49.324;8.694;2023-04-27T13:16:40;99881.56;;;21.75;48.72
38716;BME280;24833;49.324;8.694;2023-04-27T13:19:08;99877.75;;;21.76;48.77
38716;BME280;24833;49.324;8.694;2023-04-27T13:21:35;99869.03;;;21.74;48.88
38716;BME280;24833;49.324;8.694;2023-04-27T13:24:02;99873.41;;;21.80;49.25
38716;BME280;24833;49.324;8.694;2023-04-27T13:26:29;99863.63;;;21.84;48.44